createdAt,value
2022-11-18T00:01:17.356Z,8.79
2022-11-18T00:03:45.256Z,8.79
2022-11-18T00:06:15.830Z,8.78
2022-11-18T00:08:42.870Z,8.78
2022-11-18T00:11:41.895Z,8.78
2022-11-18T00:14:35.336Z,8.79
2022-11-18T00:17:05.512Z,8.79
2022-11-18T00:19:36.121Z,8.76
2022-11-18T00:22:08.067Z,8.77
2022-11-18T00:24:35.166Z,8.77
2022-11-18T00:27:02.080Z,8.76
2022-11-18T00:29:30.821Z,8.76
2022-11-18T00:31:58.480Z,8.76
2022-11-18T00:34:26.427Z,8.75
2022-11-18T00:36:53.520Z,8.74
2022-11-18T00:39:21.385Z,8.76
2022-11-18T00:42:08.220Z,8.75
2022-11-18T00:44:35.704Z,8.75
2022-11-18T00:47:05.484Z,8.77
2022-11-18T00:49:32.457Z,8.77
2022-11-18T00:51:59.485Z,8.77
2022-11-18T00:54:26.472Z,8.78
2022-11-18T00:56:53.420Z,8.78
2022-11-18T00:59:20.666Z,8.79
2022-11-18T01:01:49.106Z,8.80
2022-11-18T01:04:16.848Z,8.81
2022-11-18T01:06:43.801Z,8.82
2022-11-18T01:09:10.803Z,8.81
2022-11-18T01:11:56.614Z,8.83
2022-11-18T01:14:26.790Z,8.84
2022-11-18T01:16:55.716Z,8.85
2022-11-18T01:19:24.091Z,8.86
2022-11-18T01:21:51.339Z,8.87
2022-11-18T01:24:18.302Z,8.87
2022-11-18T01:26:45.255Z,8.89
2022-11-18T01:29:12.301Z,8.89
2022-11-18T01:31:55.566Z,8.89
2022-11-18T01:34:29.341Z,8.90
2022-11-18T01:36:57.904Z,8.89
2022-11-18T01:39:25.389Z,8.89
2022-11-18T01:41:52.400Z,8.90
2022-11-18T01:44:59.926Z,8.91
2022-11-18T01:47:37.204Z,8.91
2022-11-18T01:50:06.578Z,8.89
2022-11-18T01:52:35.335Z,8.91
2022-11-18T01:55:14.063Z,8.93
2022-11-18T01:57:42.189Z,8.92
2022-11-18T02:00:10.215Z,8.91
2022-11-18T02:02:38.230Z,8.92
2022-11-18T02:05:08.805Z,8.92
2022-11-18T02:07:43.093Z,8.91
2022-11-18T02:10:21.295Z,8.92
2022-11-18T02:12:50.194Z,8.91
2022-11-18T02:15:21.623Z,8.91
2022-11-18T02:18:07.266Z,8.90
2022-11-18T02:20:46.616Z,8.91
2022-11-18T02:23:44.519Z,8.89
2022-11-18T02:26:47.129Z,8.90
2022-11-18T02:29:32.764Z,8.88
2022-11-18T02:32:04.390Z,8.88
2022-11-18T02:38:59.404Z,8.88
2022-11-18T02:41:31.787Z,8.89
2022-11-18T02:44:11.778Z,8.89
2022-11-18T02:46:40.216Z,8.89
2022-11-18T02:49:16.234Z,8.90
2022-11-18T02:51:45.360Z,8.89
2022-11-18T02:54:13.733Z,8.89
2022-11-18T02:56:42.164Z,8.89
2022-11-18T02:59:09.091Z,8.88
2022-11-18T03:01:36.852Z,8.88
2022-11-18T03:04:04.304Z,8.88
2022-11-18T03:06:40.204Z,8.86
2022-11-18T03:09:28.998Z,8.86
2022-11-18T03:12:44.765Z,8.84
2022-11-18T03:15:44.736Z,8.83
2022-11-18T03:18:28.831Z,8.81
2022-11-18T03:21:39.900Z,8.82
2022-11-18T03:24:28.782Z,8.80
2022-11-18T03:27:19.710Z,8.79
2022-11-18T03:30:07.702Z,8.74
2022-11-18T03:32:41.769Z,8.72
2022-11-18T03:35:19.298Z,8.70
2022-11-18T03:37:50.405Z,8.68
2022-11-18T03:40:23.388Z,8.66
2022-11-18T03:42:56.772Z,8.65
2022-11-18T03:45:47.129Z,8.62
2022-11-18T03:48:22.451Z,8.62
2022-11-18T03:51:00.867Z,8.63
2022-11-18T03:53:33.009Z,8.61
2022-11-18T03:56:15.760Z,8.59
2022-11-18T03:59:13.050Z,8.58
2022-11-18T04:01:48.225Z,8.56
2022-11-18T04:04:15.460Z,8.56
2022-11-18T04:07:12.841Z,8.56
2022-11-18T04:09:50.262Z,8.54
2022-11-18T04:12:21.110Z,8.53
2022-11-18T04:14:52.165Z,8.54
2022-11-18T04:17:26.285Z,8.52
2022-11-18T04:19:53.571Z,8.51
2022-11-18T04:22:20.801Z,8.50
2022-11-18T04:24:47.748Z,8.49
2022-11-18T04:27:14.791Z,8.48
2022-11-18T04:29:41.758Z,8.46
2022-11-18T04:32:08.817Z,8.46
2022-11-18T04:34:35.808Z,8.45
2022-11-18T04:37:02.780Z,8.45
2022-11-18T04:39:29.743Z,8.44
2022-11-18T04:41:56.734Z,8.44
2022-11-18T04:44:32.575Z,8.42
2022-11-18T04:47:03.642Z,8.42
2022-11-18T04:49:31.136Z,8.40
2022-11-18T04:51:58.845Z,8.37
2022-11-18T04:54:26.798Z,8.38
2022-11-18T04:56:55.113Z,8.38
2022-11-18T04:59:26.076Z,8.37
2022-11-18T05:01:53.665Z,8.37
2022-11-18T05:04:25.929Z,8.34
2022-11-18T05:06:53.306Z,8.34
2022-11-18T05:09:21.105Z,8.32
2022-11-18T05:12:07.242Z,8.32
2022-11-18T05:14:34.324Z,8.31
2022-11-18T05:17:04.147Z,8.30
2022-11-18T05:19:31.187Z,8.30
2022-11-18T05:21:58.715Z,8.29
2022-11-18T05:24:26.021Z,8.28
2022-11-18T05:26:54.002Z,8.28
2022-11-18T05:29:21.411Z,8.27
2022-11-18T05:31:49.072Z,8.26
2022-11-18T05:34:17.402Z,8.25
2022-11-18T05:36:44.604Z,8.22
2022-11-18T05:39:11.720Z,8.21
2022-11-18T05:41:57.149Z,8.20
2022-11-18T05:44:24.139Z,8.16
2022-11-18T05:46:51.082Z,8.16
2022-11-18T05:49:18.207Z,8.13
2022-11-18T05:51:45.236Z,8.12
2022-11-18T05:54:16.711Z,8.09
2022-11-18T05:56:45.346Z,8.08
2022-11-18T05:59:12.745Z,8.05
2022-11-18T06:01:51.214Z,8.05
2022-11-18T06:04:28.942Z,8.01
2022-11-18T06:07:07.079Z,7.99
2022-11-18T06:09:41.292Z,7.97
2022-11-18T06:12:09.338Z,7.98
2022-11-18T06:14:43.476Z,7.95
2022-11-18T06:17:27.039Z,7.92
2022-11-18T06:19:54.370Z,7.92
2022-11-18T06:22:21.636Z,7.89
2022-11-18T06:24:48.665Z,7.87
2022-11-18T06:27:16.222Z,7.86
2022-11-18T06:29:43.164Z,7.84
2022-11-18T06:32:10.988Z,7.80
2022-11-18T06:34:41.553Z,7.79
2022-11-18T06:37:21.835Z,7.75
2022-11-18T06:39:48.799Z,7.73
2022-11-18T06:42:35.717Z,7.72
2022-11-18T06:45:04.664Z,7.70
2022-11-18T06:47:31.892Z,7.68
2022-11-18T06:49:58.831Z,7.66
2022-11-18T06:52:25.897Z,7.64
2022-11-18T06:54:52.848Z,7.63
2022-11-18T06:57:19.798Z,7.63
2022-11-18T06:59:46.860Z,7.62
2022-11-18T07:02:13.938Z,7.62
2022-11-18T07:04:41.322Z,7.63
2022-11-18T07:07:08.388Z,7.62
2022-11-18T07:09:37.230Z,7.63
2022-11-18T07:12:05.098Z,7.61
2022-11-18T07:14:32.285Z,7.61
2022-11-18T07:16:59.274Z,7.62
2022-11-18T07:19:29.026Z,7.59
2022-11-18T07:21:59.454Z,7.59
2022-11-18T07:24:26.398Z,7.58
2022-11-18T07:26:54.258Z,7.56
2022-11-18T07:29:21.190Z,7.55
2022-11-18T07:31:48.206Z,7.55
2022-11-18T07:34:15.279Z,7.54
2022-11-18T07:36:42.288Z,7.55
2022-11-18T07:39:09.414Z,7.55
2022-11-18T07:41:36.519Z,7.55
2022-11-18T07:44:05.230Z,7.55
2022-11-18T07:46:35.551Z,7.52
2022-11-18T07:49:08.647Z,7.52
2022-11-18T07:51:39.040Z,7.51
2022-11-18T07:54:09.357Z,7.51
2022-11-18T07:56:36.454Z,7.50
2022-11-18T07:59:04.556Z,7.51
2022-11-18T08:01:32.000Z,7.49
2022-11-18T08:04:06.759Z,7.49
2022-11-18T08:06:35.189Z,7.51
2022-11-18T08:09:02.842Z,7.49
2022-11-18T08:11:29.873Z,7.50
2022-11-18T08:13:56.807Z,7.50
2022-11-18T08:16:25.927Z,7.50
2022-11-18T08:18:53.822Z,7.52
2022-11-18T08:21:22.799Z,7.51
2022-11-18T08:23:56.249Z,7.52
2022-11-18T08:26:24.942Z,7.52
2022-11-18T08:28:53.275Z,7.52
2022-11-18T08:31:27.015Z,7.53
2022-11-18T08:34:02.528Z,7.53
2022-11-18T08:36:32.948Z,7.53
2022-11-18T08:39:02.840Z,7.52
2022-11-18T08:41:40.235Z,7.54
2022-11-18T08:44:10.086Z,7.56
2022-11-18T08:46:37.078Z,7.56
2022-11-18T08:49:04.462Z,7.58
2022-11-18T08:51:31.551Z,7.60
2022-11-18T08:53:58.565Z,7.61
2022-11-18T08:56:25.870Z,7.62
2022-11-18T08:58:53.370Z,7.63
2022-11-18T09:01:20.691Z,7.64
2022-11-18T09:03:48.915Z,7.65
2022-11-18T09:06:25.441Z,7.65
2022-11-18T09:08:53.663Z,7.67
2022-11-18T09:11:26.493Z,7.68
2022-11-18T09:16:44.222Z,7.71
2022-11-18T09:19:46.293Z,7.71
2022-11-18T09:21:58.926Z,7.74
2022-11-18T09:24:25.896Z,7.75
2022-11-18T09:26:53.846Z,7.78
2022-11-18T09:29:25.234Z,7.81
2022-11-18T09:31:54.392Z,7.83
2022-11-18T09:34:22.768Z,7.85
2022-11-18T09:36:50.500Z,7.87
2022-11-18T09:39:17.621Z,7.91
2022-11-18T09:41:54.897Z,7.90
2022-11-18T09:44:40.433Z,7.93
2022-11-18T09:47:09.998Z,7.96
2022-11-18T09:49:43.615Z,7.97
2022-11-18T09:52:34.304Z,8.00
2022-11-18T09:55:13.337Z,8.02
2022-11-18T09:57:46.670Z,8.04
2022-11-18T10:00:26.445Z,8.05
2022-11-18T10:03:12.398Z,8.08
2022-11-18T10:05:56.951Z,8.14
2022-11-18T10:08:35.657Z,8.16
2022-11-18T10:11:23.844Z,8.19
2022-11-18T10:14:54.797Z,8.21
2022-11-18T10:17:51.288Z,8.24
2022-11-18T10:20:30.028Z,8.26
2022-11-18T10:23:12.539Z,8.28
2022-11-18T10:25:39.526Z,8.31
2022-11-18T10:28:22.972Z,8.35
2022-11-18T10:30:50.459Z,8.37
2022-11-18T10:33:28.673Z,8.37
2022-11-18T10:36:19.074Z,8.40
2022-11-18T10:38:49.888Z,8.41
2022-11-18T10:41:20.757Z,8.41
2022-11-18T10:43:52.804Z,8.42
2022-11-18T10:46:29.681Z,8.44
2022-11-18T10:49:08.866Z,8.45
2022-11-18T10:52:10.143Z,8.51
2022-11-18T10:54:37.854Z,8.53
2022-11-18T10:57:23.536Z,8.56
2022-11-18T10:59:57.696Z,8.58
2022-11-18T11:02:38.576Z,8.60
2022-11-18T11:05:22.164Z,8.64
2022-11-18T11:08:36.919Z,8.65
2022-11-18T11:11:04.444Z,8.67
2022-11-18T11:13:32.514Z,8.69
2022-11-18T11:16:05.622Z,8.71
2022-11-18T11:18:41.544Z,8.73
2022-11-18T11:21:27.843Z,8.74
2022-11-18T11:23:54.912Z,8.76
2022-11-18T11:30:33.536Z,8.82
2022-11-18T11:33:23.109Z,8.87
2022-11-18T11:36:02.419Z,8.90
2022-11-18T11:39:04.290Z,8.93
2022-11-18T11:42:23.337Z,8.94
2022-11-18T11:45:15.016Z,8.94
2022-11-18T11:48:18.293Z,8.96
2022-11-18T11:51:03.906Z,8.96
2022-11-18T11:54:21.429Z,8.97
2022-11-18T11:56:55.886Z,8.98
2022-11-18T11:59:32.409Z,8.98
2022-11-18T12:02:14.118Z,9.01
2022-11-18T12:04:53.033Z,9.04
2022-11-18T12:07:45.568Z,9.05
2022-11-18T12:11:06.182Z,9.06
2022-11-18T12:14:26.530Z,9.09
2022-11-18T12:17:19.624Z,9.10
2022-11-18T12:19:46.961Z,9.13
2022-11-18T12:22:14.734Z,9.16
2022-11-18T12:24:43.363Z,9.19
2022-11-18T12:27:34.828Z,9.23
2022-11-18T12:30:04.362Z,9.24
2022-11-18T12:32:46.685Z,9.27
2022-11-18T12:35:37.317Z,9.31
2022-11-18T12:38:04.913Z,9.31
2022-11-18T12:40:52.658Z,9.30
2022-11-18T12:43:45.045Z,9.31
2022-11-18T12:46:45.691Z,9.31
2022-11-18T12:49:22.563Z,9.33
2022-11-18T12:51:52.771Z,9.35
2022-11-18T12:54:46.637Z,9.35
2022-11-18T12:57:17.906Z,9.35
2022-11-18T12:59:46.007Z,9.37
2022-11-18T13:02:28.365Z,9.37
2022-11-18T13:05:22.352Z,9.37
2022-11-18T13:08:15.436Z,9.37
2022-11-18T13:11:14.407Z,9.38
2022-11-18T13:13:42.900Z,9.40
2022-11-18T13:16:44.343Z,9.41
2022-11-18T13:19:23.108Z,9.41
2022-11-18T13:22:17.786Z,9.40
2022-11-18T13:24:52.199Z,9.38
2022-11-18T13:27:31.988Z,9.38
2022-11-18T13:30:12.768Z,9.37
2022-11-18T13:32:45.547Z,9.38
2022-11-18T13:35:20.521Z,9.37
2022-11-18T13:38:02.539Z,9.35
2022-11-18T13:41:09.082Z,9.34
2022-11-18T13:43:36.402Z,9.32
2022-11-18T13:46:22.478Z,9.32
2022-11-18T13:48:58.733Z,9.28
2022-11-18T13:51:26.448Z,9.26
2022-11-18T13:53:53.582Z,9.26
2022-11-18T13:56:31.636Z,9.25
2022-11-18T13:59:18.045Z,9.25
2022-11-18T14:01:47.205Z,9.23
2022-11-18T14:04:23.986Z,9.22
2022-11-18T14:06:51.096Z,9.21
2022-11-18T14:09:30.379Z,9.20
2022-11-18T14:12:32.776Z,9.19
2022-11-18T14:15:30.497Z,9.17
2022-11-18T14:18:00.218Z,9.16
2022-11-18T14:20:30.702Z,9.20
2022-11-18T14:23:01.153Z,9.24
2022-11-18T14:25:36.512Z,9.32
2022-11-18T14:28:18.401Z,9.38
2022-11-18T14:31:12.684Z,9.44
2022-11-18T14:33:39.742Z,9.49
2022-11-18T14:36:24.949Z,9.54
2022-11-18T14:41:48.320Z,9.63
2022-11-18T14:44:16.488Z,9.65
2022-11-18T14:46:53.294Z,9.68
2022-11-18T14:49:24.015Z,9.72
2022-11-18T14:51:52.877Z,9.75
2022-11-18T14:54:27.231Z,9.80
2022-11-18T14:57:00.183Z,9.83
2022-11-18T14:59:27.253Z,9.84
2022-11-18T15:01:54.755Z,9.83
2022-11-18T15:04:22.267Z,9.81
2022-11-18T15:06:49.479Z,9.79
2022-11-18T15:09:16.605Z,9.75
2022-11-18T15:11:44.611Z,9.69
2022-11-18T15:14:11.639Z,9.63
2022-11-18T15:16:38.594Z,9.58
2022-11-18T15:19:06.384Z,9.53
2022-11-18T15:21:33.856Z,9.47
2022-11-18T15:24:03.010Z,9.44
2022-11-18T15:26:37.179Z,9.42
2022-11-18T15:29:04.751Z,9.38
2022-11-18T15:31:31.712Z,9.36
2022-11-18T15:34:03.461Z,9.35
2022-11-18T15:36:33.480Z,9.32
2022-11-18T15:39:01.644Z,9.27
2022-11-18T15:41:31.091Z,9.24
2022-11-18T15:44:00.615Z,9.20
2022-11-18T15:46:29.961Z,9.16
2022-11-18T15:49:00.983Z,9.13
2022-11-18T15:51:30.175Z,9.09
2022-11-18T15:53:58.295Z,9.07
2022-11-18T15:56:30.158Z,9.04
2022-11-18T15:58:59.508Z,9.01
2022-11-18T16:01:29.858Z,8.98
2022-11-18T16:03:57.161Z,8.94
2022-11-18T16:06:25.132Z,8.92
2022-11-18T16:08:58.871Z,8.87
2022-11-18T16:11:47.589Z,8.85
2022-11-18T16:14:18.133Z,8.79
2022-11-18T16:16:47.740Z,8.77
2022-11-18T16:19:18.748Z,8.74
2022-11-18T16:21:51.508Z,8.71
2022-11-18T16:24:25.481Z,8.69
2022-11-18T16:26:52.903Z,8.68
2022-11-18T16:29:21.130Z,8.67
2022-11-18T16:31:54.144Z,8.65
2022-11-18T16:34:25.456Z,8.65
2022-11-18T16:36:59.636Z,8.64
2022-11-18T16:39:28.307Z,8.62
2022-11-18T16:42:03.757Z,8.61
2022-11-18T16:44:34.782Z,8.61
2022-11-18T16:47:01.937Z,8.60
2022-11-18T16:49:29.076Z,8.59
2022-11-18T16:51:57.079Z,8.59
2022-11-18T16:54:30.163Z,8.58
2022-11-18T16:56:59.160Z,8.58
2022-11-18T16:59:30.953Z,8.56
2022-11-18T17:02:00.071Z,8.53
2022-11-18T17:04:29.146Z,8.52
2022-11-18T17:06:59.576Z,8.52
2022-11-18T17:09:27.073Z,8.50
2022-11-18T17:11:55.645Z,8.50
2022-11-18T17:14:23.404Z,8.49
2022-11-18T17:16:51.613Z,8.48
2022-11-18T17:19:22.224Z,8.48
2022-11-18T17:21:51.035Z,8.46
2022-11-18T17:24:21.684Z,8.45
2022-11-18T17:26:49.512Z,8.46
2022-11-18T17:29:16.904Z,8.43
2022-11-18T17:31:48.014Z,8.43
2022-11-18T17:34:21.059Z,8.42
2022-11-18T17:36:48.506Z,8.43
2022-11-18T17:39:17.393Z,8.42
2022-11-18T17:42:04.131Z,8.42
2022-11-18T17:44:33.731Z,8.41
2022-11-18T17:47:02.742Z,8.42
2022-11-18T17:49:29.824Z,8.42
2022-11-18T17:51:58.933Z,8.41
2022-11-18T17:54:32.185Z,8.40
2022-11-18T17:59:48.149Z,8.38
2022-11-18T18:05:13.633Z,8.36
2022-11-18T18:07:44.029Z,8.36
2022-11-18T18:10:12.738Z,8.34
2022-11-18T18:13:07.988Z,8.34
2022-11-18T18:15:36.591Z,8.33
2022-11-18T18:18:09.601Z,8.31
2022-11-18T18:20:42.145Z,8.30
2022-11-18T18:23:15.555Z,8.28
2022-11-18T18:25:44.647Z,8.27
2022-11-18T18:28:15.142Z,8.25
2022-11-18T18:30:47.922Z,8.22
2022-11-18T18:33:23.934Z,8.20
2022-11-18T18:35:59.223Z,8.19
2022-11-18T18:38:28.341Z,8.16
2022-11-18T18:41:06.422Z,8.15
2022-11-18T18:43:35.764Z,8.13
2022-11-18T18:46:34.960Z,8.11
2022-11-18T18:49:19.211Z,8.08
2022-11-18T18:51:55.853Z,8.08
2022-11-18T18:54:27.110Z,8.07
2022-11-18T18:56:55.473Z,8.06
2022-11-18T18:59:22.828Z,8.07
2022-11-18T19:01:49.978Z,8.05
2022-11-18T19:04:17.606Z,8.05
2022-11-18T19:06:53.647Z,8.04
2022-11-18T19:09:35.443Z,8.03
2022-11-18T19:12:32.094Z,8.01
2022-11-18T19:15:06.932Z,7.99
2022-11-18T19:17:41.555Z,7.99
2022-11-18T19:20:32.676Z,7.98
2022-11-18T19:23:10.289Z,7.97
2022-11-18T19:25:37.992Z,7.96
2022-11-18T19:28:05.052Z,7.96
2022-11-18T19:30:32.501Z,7.96
2022-11-18T19:32:59.537Z,7.94
2022-11-18T19:37:58.376Z,7.93
2022-11-18T19:40:28.459Z,7.93
2022-11-18T19:42:55.831Z,7.92
2022-11-18T19:45:22.994Z,7.91
2022-11-18T19:47:49.947Z,7.91
2022-11-18T19:50:17.256Z,7.90
2022-11-18T19:52:48.323Z,7.91
2022-11-18T19:55:15.592Z,7.90
2022-11-18T19:57:42.596Z,7.89
2022-11-18T20:00:10.562Z,7.88
2022-11-18T20:02:38.406Z,7.89
2022-11-18T20:05:24.385Z,7.87
2022-11-18T20:07:55.935Z,7.87
2022-11-18T20:10:23.009Z,7.87
2022-11-18T20:12:50.335Z,7.86
2022-11-18T20:15:17.397Z,7.86
2022-11-18T20:17:44.465Z,7.85
2022-11-18T20:20:11.627Z,7.85
2022-11-18T20:22:38.626Z,7.83
2022-11-18T20:25:07.870Z,7.82
2022-11-18T20:27:34.830Z,7.81
2022-11-18T20:30:02.518Z,7.78
2022-11-18T20:32:29.602Z,7.77
2022-11-18T20:34:56.761Z,7.76
2022-11-18T20:37:27.922Z,7.74
2022-11-18T20:39:55.348Z,7.72
2022-11-18T20:42:40.992Z,7.73
2022-11-18T20:45:08.643Z,7.72
2022-11-18T20:47:35.598Z,7.73
2022-11-18T20:50:02.644Z,7.71
2022-11-18T20:52:29.584Z,7.71
2022-11-18T20:54:59.180Z,7.72
2022-11-18T20:57:29.727Z,7.72
2022-11-18T20:59:56.694Z,7.71
2022-11-18T21:02:23.659Z,7.70
2022-11-18T21:04:50.677Z,7.71
2022-11-18T21:07:17.829Z,7.71
2022-11-18T21:09:45.187Z,7.71
2022-11-18T21:12:12.281Z,7.71
2022-11-18T21:14:39.271Z,7.71
2022-11-18T21:17:06.415Z,7.71
2022-11-18T21:19:33.810Z,7.72
2022-11-18T21:22:00.806Z,7.71
2022-11-18T21:24:31.497Z,7.72
2022-11-18T21:27:00.486Z,7.72
2022-11-18T21:29:30.371Z,7.73
2022-11-18T21:32:01.305Z,7.72
2022-11-18T21:34:29.036Z,7.72
2022-11-18T21:36:56.049Z,7.72
2022-11-18T21:39:24.548Z,7.72
2022-11-18T21:41:55.710Z,7.71
2022-11-18T21:44:24.487Z,7.72
2022-11-18T21:46:51.805Z,7.70
2022-11-18T21:49:19.248Z,7.70
2022-11-18T21:51:46.758Z,7.69
2022-11-18T21:54:15.868Z,7.68
2022-11-18T21:56:43.275Z,7.67
2022-11-18T21:59:10.371Z,7.68
2022-11-18T22:01:37.344Z,7.67
2022-11-18T22:04:05.674Z,7.65
2022-11-18T22:06:34.437Z,7.65
2022-11-18T22:09:03.991Z,7.63
2022-11-18T22:11:30.981Z,7.62
2022-11-18T22:13:58.235Z,7.61
2022-11-18T22:16:26.714Z,7.61
2022-11-18T22:19:01.363Z,7.60
2022-11-18T22:21:32.126Z,7.60
2022-11-18T22:24:00.984Z,7.59
2022-11-18T22:26:28.909Z,7.58
2022-11-18T22:28:57.824Z,7.58
2022-11-18T22:31:27.405Z,7.58
2022-11-18T22:33:55.825Z,7.59
2022-11-18T22:36:25.719Z,7.58
2022-11-18T22:38:54.436Z,7.57
2022-11-18T22:41:43.895Z,7.56
2022-11-18T22:44:12.476Z,7.57
2022-11-18T22:46:41.326Z,7.57
2022-11-18T22:49:09.946Z,7.58
2022-11-18T22:51:38.532Z,7.58
2022-11-18T22:56:54.616Z,7.57
2022-11-18T22:59:21.935Z,7.58
2022-11-18T23:01:51.708Z,7.58
2022-11-18T23:04:19.050Z,7.59
2022-11-18T23:06:46.063Z,7.60
2022-11-18T23:09:13.308Z,7.60
2022-11-18T23:12:01.217Z,7.59
2022-11-18T23:14:30.569Z,7.60
2022-11-18T23:16:57.757Z,7.60
2022-11-18T23:19:24.686Z,7.59
2022-11-18T23:21:51.696Z,7.59
2022-11-18T23:24:19.567Z,7.59
2022-11-18T23:26:47.890Z,7.59
2022-11-18T23:29:15.516Z,7.58
2022-11-18T23:31:44.490Z,7.58
2022-11-18T23:34:14.043Z,7.58
2022-11-18T23:36:41.821Z,7.59
2022-11-18T23:39:09.387Z,7.59
2022-11-18T23:41:36.418Z,7.59
2022-11-18T23:44:03.963Z,7.59
2022-11-18T23:46:31.668Z,7.58
2022-11-18T23:48:58.905Z,7.59
2022-11-18T23:51:26.180Z,7.59
2022-11-18T23:53:56.201Z,7.59
2022-11-18T23:56:26.446Z,7.60
2022-11-18T23:58:55.694Z,7.59
